Time,TemperatureF,DewpointF,PressureIn,WindDirection,WindDirectionDegrees,WindSpeedMPH,WindSpeedGustMPH,Humidity,HourlyPrecipIn,Conditions,Clouds,dailyrainin,SolarRadiationWatts/m^2,SoftwareType,DateUTC
2013-02-03 00:02:00,3.0,-4.0,-100.00,SW,217,3.0,5.0,71,0.00,,,0.01,1.000000,,2013-02-03 06:02:00,
2013-02-03 00:11:00,3.0,-4.0,-100.00,SW,217,3.0,5.0,71,0.00,,,0.01,1.000000,,2013-02-03 06:11:00,
2013-02-03 00:21:00,3.0,-4.0,-100.00,SW,217,3.0,5.0,71,0.00,,,0.01,1.000000,,2013-02-03 06:21:00,
2013-02-03 00:32:00,3.0,-4.0,-100.00,SW,217,3.0,5.0,71,0.00,,,0.01,1.000000,,2013-02-03 06:32:00,
2013-02-03 01:01:00,3.0,-5.0,-100.00,SW,230,3.0,7.0,70,0.00,,,0.01,1.000000,,2013-02-03 07:01:00,
2013-02-03 01:11:00,3.0,-5.0,-100.00,SW,230,3.0,7.0,70,0.00,,,0.01,1.000000,,2013-02-03 07:11:00,
2013-02-03 01:21:00,3.0,-5.0,-100.00,SW,230,3.0,7.0,70,0.00,,,0.01,1.000000,,2013-02-03 07:21:00,
2013-02-03 01:31:00,3.0,-5.0,-100.00,SW,230,3.0,7.0,70,0.00,,,0.01,1.000000,,2013-02-03 07:31:00,
2013-02-03 02:01:00,3.0,-4.0,-100.00,WSW,245,3.0,8.0,72,0.00,,,0.01,1.000000,,2013-02-03 08:01:00,
2013-02-03 02:11:00,3.0,-4.0,-100.00,WSW,245,3.0,8.0,72,0.00,,,0.01,1.000000,,2013-02-03 08:11:00,
2013-02-03 02:22:00,3.0,-4.0,-100.00,WSW,245,3.0,8.0,72,0.00,,,0.01,1.000000,,2013-02-03 08:22:00,
2013-02-03 02:32:00,3.0,-4.0,-100.00,WSW,245,3.0,8.0,72,0.00,,,0.01,1.000000,,2013-02-03 08:32:00,
2013-02-03 03:02:00,3.0,-3.0,-100.00,WSW,239,4.0,8.0,74,0.00,,,0.01,1.000000,,2013-02-03 09:02:00,
2013-02-03 03:11:00,3.0,-3.0,-100.00,WSW,239,4.0,8.0,74,0.00,,,0.01,1.000000,,2013-02-03 09:11:00,
2013-02-03 03:21:00,3.0,-3.0,-100.00,WSW,239,4.0,8.0,74,0.00,,,0.01,1.000000,,2013-02-03 09:21:00,
2013-02-03 03:31:00,3.0,-3.0,-100.00,WSW,239,4.0,8.0,74,0.00,,,0.01,1.000000,,2013-02-03 09:31:00,
2013-02-03 04:01:00,3.0,-4.0,-100.00,West,269,4.0,9.0,73,0.00,,,-99.99,1.000000,,2013-02-03 10:01:00,
2013-02-03 04:11:00,3.0,-4.0,-100.00,West,269,4.0,9.0,73,0.00,,,-99.99,1.000000,,2013-02-03 10:11:00,
2013-02-03 04:21:00,3.0,-4.0,-100.00,West,269,4.0,9.0,73,0.00,,,-99.99,1.000000,,2013-02-03 10:21:00,
2013-02-03 04:31:00,3.0,-4.0,-100.00,West,269,4.0,9.0,73,0.00,,,-99.99,1.000000,,2013-02-03 10:31:00,
2013-02-03 04:53:00,3.0,-3.0,-100.00,WNW,289,3.0,8.0,74,0.00,,,0.01,1.000000,,2013-02-03 10:53:00,
2013-02-03 05:02:00,3.0,-3.0,-100.00,WNW,289,3.0,8.0,74,0.00,,,0.01,1.000000,,2013-02-03 11:02:00,
2013-02-03 05:11:00,3.0,-3.0,-100.00,WNW,289,3.0,8.0,74,0.00,,,0.01,1.000000,,2013-02-03 11:11:00,
2013-02-03 05:22:00,3.0,-3.0,-100.00,WNW,289,3.0,8.0,74,0.00,,,0.01,1.000000,,2013-02-03 11:22:00,
2013-02-03 05:32:00,3.0,-3.0,-100.00,WNW,289,3.0,8.0,74,0.00,,,0.01,1.000000,,2013-02-03 11:32:00,
2013-02-03 05:52:00,3.0,-3.0,-100.00,West,273,4.0,9.0,75,0.00,,,0.01,1.000000,,2013-02-03 11:52:00,
2013-02-03 06:02:00,3.0,-3.0,-100.00,West,273,4.0,9.0,75,0.00,,,0.01,1.000000,,2013-02-03 12:02:00,
2013-02-03 06:11:00,3.0,-3.0,-100.00,West,273,4.0,9.0,75,0.00,,,0.01,1.000000,,2013-02-03 12:11:00,
2013-02-03 06:22:00,3.0,-3.0,-100.00,West,273,4.0,9.0,75,0.00,,,0.01,1.000000,,2013-02-03 12:22:00,
2013-02-03 06:32:00,3.0,-3.0,-100.00,West,273,4.0,9.0,75,0.00,,,0.01,1.000000,,2013-02-03 12:32:00,
2013-02-03 07:03:00,4.0,-2.0,-100.00,West,264,5.0,11.0,75,0.00,,,0.01,1.000000,,2013-02-03 13:03:00,
2013-02-03 07:11:00,4.0,-2.0,-100.00,West,264,5.0,11.0,75,0.00,,,0.01,1.000000,,2013-02-03 13:11:00,
2013-02-03 07:21:00,4.0,-2.0,-100.00,West,264,5.0,11.0,75,0.00,,,0.01,1.000000,,2013-02-03 13:21:00,
2013-02-03 07:32:00,4.0,-2.0,-100.00,West,264,5.0,11.0,75,0.00,,,0.01,1.000000,,2013-02-03 13:32:00,
2013-02-03 08:02:00,4.0,-2.0,-100.00,WNW,297,4.0,9.0,75,0.00,,,0.01,2.000000,,2013-02-03 14:02:00,
2013-02-03 08:11:00,4.0,-2.0,-100.00,WNW,297,4.0,9.0,75,0.00,,,0.01,2.000000,,2013-02-03 14:11:00,
2013-02-03 08:21:00,4.0,-2.0,-100.00,WNW,297,4.0,9.0,75,0.00,,,0.01,2.000000,,2013-02-03 14:21:00,
2013-02-03 08:32:00,4.0,-2.0,-100.00,WNW,297,4.0,9.0,75,0.00,,,0.01,2.000000,,2013-02-03 14:32:00,
2013-02-03 09:03:00,6.0,0.0,-100.00,NW,318,5.0,13.0,75,0.00,,,0.01,29.000000,,2013-02-03 15:03:00,
2013-02-03 09:11:00,6.0,0.0,-100.00,NW,318,5.0,13.0,75,0.00,,,0.01,29.000000,,2013-02-03 15:11:00,
2013-02-03 09:22:00,6.0,0.0,-100.00,NW,318,5.0,13.0,75,0.00,,,0.01,29.000000,,2013-02-03 15:22:00,
2013-02-03 09:33:00,6.0,0.0,-100.00,NW,318,5.0,13.0,75,0.00,,,0.01,29.000000,,2013-02-03 15:33:00,
2013-02-03 10:02:00,8.0,1.0,-100.00,NNW,333,5.0,12.0,74,0.00,,,0.01,88.000000,,2013-02-03 16:02:00,
2013-02-03 10:11:00,8.0,1.0,-100.00,NNW,333,5.0,12.0,74,0.00,,,0.01,88.000000,,2013-02-03 16:11:00,
2013-02-03 10:22:00,8.0,1.0,-100.00,NNW,333,5.0,12.0,74,0.00,,,0.01,88.000000,,2013-02-03 16:22:00,
2013-02-03 10:32:00,8.0,1.0,-100.00,NNW,333,5.0,12.0,74,0.00,,,0.01,88.000000,,2013-02-03 16:32:00,
2013-02-03 11:02:00,8.0,0.0,-100.00,North,353,10.0,20.0,68,0.00,,,0.01,135.000000,,2013-02-03 17:02:00,
2013-02-03 11:11:00,8.0,0.0,-100.00,North,353,10.0,20.0,68,0.00,,,0.01,135.000000,,2013-02-03 17:11:00,
2013-02-03 11:22:00,8.0,0.0,-100.00,North,353,10.0,20.0,68,0.00,,,0.01,135.000000,,2013-02-03 17:22:00,
2013-02-03 11:32:00,8.0,0.0,-100.00,North,353,10.0,20.0,68,0.00,,,0.01,135.000000,,2013-02-03 17:32:00,
2013-02-03 11:52:00,10.0,-1.0,-100.00,NNW,341,8.0,20.0,59,0.00,,,0.01,309.000000,,2013-02-03 17:52:00,
2013-02-03 12:03:00,10.0,-1.0,-100.00,NNW,341,8.0,20.0,59,0.00,,,0.01,309.000000,,2013-02-03 18:03:00,
2013-02-03 12:12:00,10.0,-1.0,-100.00,NNW,341,8.0,20.0,59,0.00,,,0.01,309.000000,,2013-02-03 18:12:00,
2013-02-03 12:23:00,10.0,-1.0,-100.00,NNW,341,8.0,20.0,59,0.00,,,0.01,309.000000,,2013-02-03 18:23:00,
2013-02-03 12:32:00,10.0,-1.0,-100.00,NNW,341,8.0,20.0,59,0.00,,,0.01,309.000000,,2013-02-03 18:32:00,
2013-02-03 13:02:00,10.0,-3.0,-100.00,NNW,343,9.0,19.0,55,0.00,,,0.01,442.000000,,2013-02-03 19:02:00,
2013-02-03 13:11:00,10.0,-3.0,-100.00,NNW,343,9.0,19.0,55,0.00,,,0.01,442.000000,,2013-02-03 19:11:00,
2013-02-03 13:22:00,10.0,-3.0,-100.00,NNW,343,9.0,19.0,55,0.00,,,0.01,442.000000,,2013-02-03 19:22:00,
2013-02-03 13:32:00,10.0,-3.0,-100.00,NNW,343,9.0,19.0,55,0.00,,,0.01,442.000000,,2013-02-03 19:32:00,
2013-02-03 14:01:00,7.0,-6.0,-100.00,NNW,342,9.0,18.0,55,0.00,,,0.01,270.000000,,2013-02-03 20:01:00,
2013-02-03 14:32:00,7.0,-6.0,-100.00,NNW,342,9.0,18.0,55,0.00,,,0.01,270.000000,,2013-02-03 20:32:00,
2013-02-03 15:03:00,7.0,-3.0,-100.00,NNW,334,7.0,16.0,62,0.00,,,0.00,150.000000,,2013-02-03 21:03:00,
2013-02-03 15:11:00,7.0,-3.0,-100.00,NNW,334,7.0,16.0,62,0.00,,,0.00,150.000000,,2013-02-03 21:11:00,
2013-02-03 15:21:00,7.0,-3.0,-100.00,NNW,334,7.0,16.0,62,0.00,,,0.00,150.000000,,2013-02-03 21:21:00,
2013-02-03 15:32:00,7.0,-3.0,-100.00,NNW,334,7.0,16.0,62,0.00,,,0.00,150.000000,,2013-02-03 21:32:00,
2013-02-03 15:52:00,6.0,-6.0,-100.00,NNW,333,8.0,14.0,58,0.00,,,0.00,148.000000,,2013-02-03 21:52:00,
2013-02-03 16:01:00,6.0,-6.0,-100.00,NNW,333,8.0,14.0,58,0.00,,,0.00,148.000000,,2013-02-03 22:01:00,
2013-02-03 16:11:00,6.0,-6.0,-100.00,NNW,333,8.0,14.0,58,0.00,,,0.00,148.000000,,2013-02-03 22:11:00,
2013-02-03 16:21:00,6.0,-6.0,-100.00,NNW,333,8.0,14.0,58,0.00,,,0.00,148.000000,,2013-02-03 22:21:00,
2013-02-03 16:32:00,6.0,-6.0,-100.00,NNW,333,8.0,14.0,58,0.00,,,0.00,148.000000,,2013-02-03 22:32:00,
2013-02-03 17:01:00,5.0,-5.0,-100.00,NNW,337,7.0,14.0,61,0.00,,,0.00,82.000000,,2013-02-03 23:01:00,
2013-02-03 17:12:00,5.0,-5.0,-100.00,NNW,337,7.0,14.0,61,0.00,,,0.00,82.000000,,2013-02-03 23:12:00,
2013-02-03 17:22:00,5.0,-5.0,-100.00,NNW,337,7.0,14.0,61,0.00,,,0.00,82.000000,,2013-02-03 23:22:00,
2013-02-03 17:32:00,5.0,-5.0,-100.00,NNW,337,7.0,14.0,61,0.00,,,0.00,82.000000,,2013-02-03 23:32:00,
2013-02-03 18:02:00,4.0,-5.0,-100.00,NW,306,4.0,9.0,66,0.00,,,0.00,11.000000,,2013-02-04 00:02:00,
2013-02-03 18:11:00,4.0,-5.0,-100.00,NW,306,4.0,9.0,66,0.00,,,0.00,11.000000,,2013-02-04 00:11:00,
2013-02-03 18:22:00,4.0,-5.0,-100.00,NW,306,4.0,9.0,66,0.00,,,0.00,11.000000,,2013-02-04 00:22:00,
2013-02-03 18:32:00,4.0,-5.0,-100.00,NW,306,4.0,9.0,66,0.00,,,0.00,11.000000,,2013-02-04 00:32:00,
2013-02-03 19:01:00,4.0,-4.0,-100.00,West,268,3.0,7.0,68,0.00,,,0.00,1.000000,,2013-02-04 01:01:00,
2013-02-03 19:11:00,4.0,-4.0,-100.00,West,268,3.0,7.0,68,0.00,,,0.00,1.000000,,2013-02-04 01:11:00,
2013-02-03 19:21:00,4.0,-4.0,-100.00,West,268,3.0,7.0,68,0.00,,,0.00,1.000000,,2013-02-04 01:21:00,
2013-02-03 19:31:00,4.0,-4.0,-100.00,West,268,3.0,7.0,68,0.00,,,0.00,1.000000,,2013-02-04 01:31:00,
2013-02-03 19:52:00,2.0,-6.0,-100.00,WSW,248,2.0,5.0,69,0.00,,,0.00,1.000000,,2013-02-04 01:52:00,
2013-02-03 20:02:00,2.0,-6.0,-100.00,WSW,248,2.0,5.0,69,0.00,,,0.00,1.000000,,2013-02-04 02:02:00,
2013-02-03 20:11:00,2.0,-6.0,-100.00,WSW,248,2.0,5.0,69,0.00,,,0.00,1.000000,,2013-02-04 02:11:00,
2013-02-03 20:21:00,2.0,-6.0,-100.00,WSW,248,2.0,5.0,69,0.00,,,0.00,1.000000,,2013-02-04 02:21:00,
2013-02-03 20:31:00,2.0,-6.0,-100.00,WSW,248,2.0,5.0,69,0.00,,,0.00,1.000000,,2013-02-04 02:31:00,
2013-02-03 20:52:00,0.0,-7.0,-100.00,SW,227,3.0,6.0,72,0.00,,,0.00,1.000000,,2013-02-04 02:52:00,
2013-02-03 21:02:00,0.0,-7.0,-100.00,SW,227,3.0,6.0,72,0.00,,,0.00,1.000000,,2013-02-04 03:02:00,
2013-02-03 21:11:00,0.0,-7.0,-100.00,SW,227,3.0,6.0,72,0.00,,,0.00,1.000000,,2013-02-04 03:11:00,
2013-02-03 21:21:00,0.0,-7.0,-100.00,SW,227,3.0,6.0,72,0.00,,,0.00,1.000000,,2013-02-04 03:21:00,
2013-02-03 21:32:00,0.0,-7.0,-100.00,SW,227,3.0,6.0,72,0.00,,,0.00,1.000000,,2013-02-04 03:32:00,
2013-02-03 21:52:00,1.0,-7.0,-100.00,WSW,254,3.0,7.0,68,0.00,,,0.00,1.000000,,2013-02-04 03:52:00,
2013-02-03 22:01:00,1.0,-7.0,-100.00,WSW,254,3.0,7.0,68,0.00,,,0.00,1.000000,,2013-02-04 04:01:00,
2013-02-03 22:11:00,1.0,-7.0,-100.00,WSW,254,3.0,7.0,68,0.00,,,0.00,1.000000,,2013-02-04 04:11:00,
2013-02-03 22:21:00,1.0,-7.0,-100.00,WSW,254,3.0,7.0,68,0.00,,,0.00,1.000000,,2013-02-04 04:21:00,
2013-02-03 22:32:00,1.0,-7.0,-100.00,WSW,254,3.0,7.0,68,0.00,,,0.00,1.000000,,2013-02-04 04:32:00,
2013-02-03 23:03:00,2.0,-6.0,-100.00,West,265,3.0,6.0,68,0.00,,,0.00,1.000000,,2013-02-04 05:03:00,
2013-02-03 23:11:00,2.0,-6.0,-100.00,West,265,3.0,6.0,68,0.00,,,0.00,1.000000,,2013-02-04 05:11:00,
2013-02-03 23:22:00,2.0,-6.0,-100.00,West,265,3.0,6.0,68,0.00,,,0.00,1.000000,,2013-02-04 05:22:00,
2013-02-03 23:33:00,2.0,-6.0,-100.00,West,265,3.0,6.0,68,0.00,,,0.00,1.000000,,2013-02-04 05:33:00,